CheckWX is a tool to help pilots better visualize weather data.  It is not intended as a substitute for an official pre-flight weather briefing.

02:15:10 UTC

KDAL TAF
Dallas Love Field Airport
Dallas, Texas, USA
KDAL 182331Z 1900/1924 16006KT P6SM SCT250 FM191800 19010KT P6SM BKN120

Mar-19@
00:00 UTC

Mar-19 @ 00:00 UTC

Mar-19@
18:00 UTC

Mar-19 @ 18:00 UTC

KDAL 182331Z 1900/1924 16006KT P6SM SCT250
Wind
  • 160° at 6 KTS
Cloud Levels
  • Scattered at 25,000' AGL

Mar-19@
18:00 UTC

Mar-19 @ 18:00 UTC

Mar-20@
00:00 UTC

Mar-20 @ 00:00 UTC

FM191800 19010KT P6SM BKN120

From

From Standard forecast or significant change

Wind
  • 190° at 10 KTS
Cloud Levels
  • Broken at 12,000' AGL